sensor_id;sensor_type;location;lat;lon;timestamp;pressure;altitude;pressure_sealevel;temperature;humidity
19128;BME280;9696;53.686;10.094;2023-04-07T00:00:48;101586.84;;;5.46;100.00
19128;BME280;9696;53.686;10.094;2023-04-07T00:03:17;101593.28;;;5.39;100.00
19128;BME280;9696;53.686;10.094;2023-04-07T00:05:47;101590.41;;;5.45;100.00
19128;BME280;9696;53.686;10.094;2023-04-07T00:08:17;101590.06;;;5.34;100.00
19128;BME280;9696;53.686;10.094;2023-04-07T00:10:46;101585.66;;;5.36;100.00
19128;BME280;9696;53.686;10.094;2023-04-07T00:13:15;101590.56;;;5.25;100.00
19128;BME280;9696;53.686;10.094;2023-04-07T00:15:44;101590.84;;;5.18;100.00
19128;BME280;9696;53.686;10.094;2023-04-07T00:18:13;101592.69;;;5.34;100.00
19128;BME280;9696;53.686;10.094;2023-04-07T00:20:42;101594.25;;;5.20;100.00
19128;BME280;9696;53.686;10.094;2023-04-07T00:23:13;101595.16;;;5.19;100.00
19128;BME280;9696;53.686;10.094;2023-04-07T00:25:42;101586.03;;;5.11;100.00
19128;BME280;9696;53.686;10.094;2023-04-07T00:28:11;101591.25;;;5.11;100.00
19128;BME280;9696;53.686;10.094;2023-04-07T00:30:40;101593.94;;;5.09;100.00
19128;BME280;9696;53.686;10.094;2023-04-07T00:33:10;101593.56;;;5.17;100.00
19128;BME280;9696;53.686;10.094;2023-04-07T00:35:39;101595.59;;;5.10;100.00
19128;BME280;9696;53.686;10.094;2023-04-07T00:38:08;101594.56;;;4.97;100.00
19128;BME280;9696;53.686;10.094;2023-04-07T00:40:38;101595.47;;;4.96;100.00
19128;BME280;9696;53.686;10.094;2023-04-07T00:43:08;101586.03;;;5.11;100.00
19128;BME280;9696;53.686;10.094;2023-04-07T00:45:37;101594.28;;;5.02;100.00
19128;BME280;9696;53.686;10.094;2023-04-07T00:48:06;101593.75;;;4.95;100.00
19128;BME280;9696;53.686;10.094;2023-04-07T00:50:35;101593.22;;;4.89;100.00
19128;BME280;9696;53.686;10.094;2023-04-07T00:53:06;101594.84;;;4.91;100.00
19128;BME280;9696;53.686;10.094;2023-04-07T00:55:35;101591.00;;;4.81;100.00
19128;BME280;9696;53.686;10.094;2023-04-07T00:58:06;101591.75;;;4.66;100.00
19128;BME280;9696;53.686;10.094;2023-04-07T01:00:40;101589.97;;;4.66;100.00
19128;BME280;9696;53.686;10.094;2023-04-07T01:03:15;101596.03;;;4.67;100.00
19128;BME280;9696;53.686;10.094;2023-04-07T01:05:52;101589.63;;;4.74;100.00
19128;BME280;9696;53.686;10.094;2023-04-07T01:08:26;101581.44;;;4.64;100.00
19128;BME280;9696;53.686;10.094;2023-04-07T01:11:02;101589.59;;;4.57;100.00
19128;BME280;9696;53.686;10.094;2023-04-07T01:13:37;101583.97;;;4.66;100.00
19128;BME280;9696;53.686;10.094;2023-04-07T01:16:23;101590.66;;;4.53;100.00
19128;BME280;9696;53.686;10.094;2023-04-07T01:18:56;101592.81;;;4.62;100.00
19128;BME280;9696;53.686;10.094;2023-04-07T01:21:27;101594.69;;;4.41;100.00
19128;BME280;9696;53.686;10.094;2023-04-07T01:24:31;101579.72;;;4.46;100.00
19128;BME280;9696;53.686;10.094;2023-04-07T01:27:16;101587.75;;;4.59;100.00
19128;BME280;9696;53.686;10.094;2023-04-07T01:29:48;101590.44;;;4.39;100.00
19128;BME280;9696;53.686;10.094;2023-04-07T01:32:26;101591.75;;;4.30;100.00
19128;BME280;9696;53.686;10.094;2023-04-07T01:34:57;101583.94;;;4.30;100.00
19128;BME280;9696;53.686;10.094;2023-04-07T01:37:28;101589.53;;;4.40;100.00
19128;BME280;9696;53.686;10.094;2023-04-07T01:39:57;101584.06;;;4.27;100.00
19128;BME280;9696;53.686;10.094;2023-04-07T01:42:27;101579.59;;;4.31;100.00
19128;BME280;9696;53.686;10.094;2023-04-07T01:44:59;101595.53;;;4.42;100.00
19128;BME280;9696;53.686;10.094;2023-04-07T01:47:29;101593.19;;;4.36;100.00
19128;BME280;9696;53.686;10.094;2023-04-07T01:50:00;101594.34;;;4.30;100.00
19128;BME280;9696;53.686;10.094;2023-04-07T01:52:31;101593.50;;;4.30;100.00
19128;BME280;9696;53.686;10.094;2023-04-07T01:55:03;101592.09;;;4.22;100.00
19128;BME280;9696;53.686;10.094;2023-04-07T01:57:36;101587.16;;;4.35;100.00
19128;BME280;9696;53.686;10.094;2023-04-07T02:00:14;101581.97;;;4.16;100.00
19128;BME280;9696;53.686;10.094;2023-04-07T02:02:50;101588.50;;;4.25;100.00
19128;BME280;9696;53.686;10.094;2023-04-07T02:05:21;101594.41;;;4.28;100.00
19128;BME280;9696;53.686;10.094;2023-04-07T02:07:52;101595.03;;;4.15;100.00
19128;BME280;9696;53.686;10.094;2023-04-07T02:10:27;101589.50;;;4.22;100.00
19128;BME280;9696;53.686;10.094;2023-04-07T02:13:00;101591.66;;;4.13;100.00
19128;BME280;9696;53.686;10.094;2023-04-07T02:15:33;101588.38;;;4.09;100.00
19128;BME280;9696;53.686;10.094;2023-04-07T02:18:03;101586.47;;;4.13;100.00
19128;BME280;9696;53.686;10.094;2023-04-07T02:20:35;101586.91;;;4.22;100.00
19128;BME280;9696;53.686;10.094;2023-04-07T02:23:07;101585.50;;;3.97;100.00
19128;BME280;9696;53.686;10.094;2023-04-07T02:25:36;101595.63;;;4.03;100.00
19128;BME280;9696;53.686;10.094;2023-04-07T02:28:06;101587.47;;;4.10;100.00
19128;BME280;9696;53.686;10.094;2023-04-07T02:30:36;101591.88;;;4.08;100.00
19128;BME280;9696;53.686;10.094;2023-04-07T02:33:05;101593.63;;;4.08;100.00
19128;BME280;9696;53.686;10.094;2023-04-07T02:35:35;101594.97;;;4.16;100.00
19128;BME280;9696;53.686;10.094;2023-04-07T02:38:04;101597.50;;;4.18;100.00
19128;BME280;9696;53.686;10.094;2023-04-07T02:40:35;101587.47;;;4.29;100.00
19128;BME280;9696;53.686;10.094;2023-04-07T02:43:04;101596.34;;;4.23;100.00
19128;BME280;9696;53.686;10.094;2023-04-07T02:45:33;101604.72;;;4.11;100.00
19128;BME280;9696;53.686;10.094;2023-04-07T02:48:05;101604.03;;;4.26;100.00
19128;BME280;9696;53.686;10.094;2023-04-07T02:50:34;101615.34;;;4.07;100.00
19128;BME280;9696;53.686;10.094;2023-04-07T02:53:03;101605.69;;;4.09;100.00
19128;BME280;9696;53.686;10.094;2023-04-07T02:55:33;101603.59;;;4.17;100.00
19128;BME280;9696;53.686;10.094;2023-04-07T02:58:02;101603.75;;;4.14;100.00
19128;BME280;9696;53.686;10.094;2023-04-07T03:00:41;101600.66;;;4.24;100.00
19128;BME280;9696;53.686;10.094;2023-04-07T03:03:16;101607.31;;;4.11;100.00
19128;BME280;9696;53.686;10.094;2023-04-07T03:05:57;101600.16;;;4.16;100.00
19128;BME280;9696;53.686;10.094;2023-04-07T03:08:26;101599.31;;;4.16;100.00
19128;BME280;9696;53.686;10.094;2023-04-07T03:10:56;101602.69;;;4.18;100.00
19128;BME280;9696;53.686;10.094;2023-04-07T03:13:28;101606.91;;;4.20;100.00
19128;BME280;9696;53.686;10.094;2023-04-07T03:15:58;101608.59;;;4.21;100.00
19128;BME280;9696;53.686;10.094;2023-04-07T03:18:34;101600.31;;;4.13;100.00
19128;BME280;9696;53.686;10.094;2023-04-07T03:21:03;101606.75;;;4.05;100.00
19128;BME280;9696;53.686;10.094;2023-04-07T03:23:32;101606.31;;;3.95;100.00
19128;BME280;9696;53.686;10.094;2023-04-07T03:26:02;101602.88;;;4.32;100.00
19128;BME280;9696;53.686;10.094;2023-04-07T03:28:35;101603.75;;;4.14;100.00
19128;BME280;9696;53.686;10.094;2023-04-07T03:31:04;101608.91;;;3.95;100.00
19128;BME280;9696;53.686;10.094;2023-04-07T03:33:35;101609.84;;;4.13;100.00
19128;BME280;9696;53.686;10.094;2023-04-07T03:36:05;101611.44;;;3.97;100.00
19128;BME280;9696;53.686;10.094;2023-04-07T03:38:34;101608.09;;;4.13;100.00
19128;BME280;9696;53.686;10.094;2023-04-07T03:41:05;101609.84;;;4.13;100.00
19128;BME280;9696;53.686;10.094;2023-04-07T03:43:34;101621.13;;;3.93;100.00
19128;BME280;9696;53.686;10.094;2023-04-07T03:46:03;101620.84;;;3.99;100.00
19128;BME280;9696;53.686;10.094;2023-04-07T03:48:33;101623.13;;;4.07;100.00
19128;BME280;9696;53.686;10.094;2023-04-07T03:51:12;101620.97;;;3.96;100.00
19128;BME280;9696;53.686;10.094;2023-04-07T03:53:41;101623.03;;;3.90;100.00
19128;BME280;9696;53.686;10.094;2023-04-07T03:56:22;101629.66;;;3.95;100.00
19128;BME280;9696;53.686;10.094;2023-04-07T03:58:52;101630.00;;;3.88;100.00
19128;BME280;9696;53.686;10.094;2023-04-07T04:01:27;101635.44;;;3.83;100.00
19128;BME280;9696;53.686;10.094;2023-04-07T04:03:59;101633.59;;;3.85;100.00
19128;BME280;9696;53.686;10.094;2023-04-07T04:06:31;101643.59;;;3.94;100.00
19128;BME280;9696;53.686;10.094;2023-04-07T04:09:09;101645.72;;;3.85;100.00
19128;BME280;9696;53.686;10.094;2023-04-07T04:11:44;101644.50;;;3.73;100.00
19128;BME280;9696;53.686;10.094;2023-04-07T04:14:15;101646.19;;;3.74;100.00
19128;BME280;9696;53.686;10.094;2023-04-07T04:16:50;101640.50;;;3.66;100.00
19128;BME280;9696;53.686;10.094;2023-04-07T04:19:42;101649.03;;;3.88;100.00
19128;BME280;9696;53.686;10.094;2023-04-07T04:22:20;101647.75;;;3.78;100.00
19128;BME280;9696;53.686;10.094;2023-04-07T04:24:53;101657.44;;;3.74;100.00
19128;BME280;9696;53.686;10.094;2023-04-07T04:27:24;101653.19;;;3.72;100.00
19128;BME280;9696;53.686;10.094;2023-04-07T04:30:01;101655.69;;;3.75;100.00
19128;BME280;9696;53.686;10.094;2023-04-07T04:32:36;101654.75;;;3.76;100.00
19128;BME280;9696;53.686;10.094;2023-04-07T04:35:08;101650.59;;;3.52;100.00
19128;BME280;9696;53.686;10.094;2023-04-07T04:37:47;101659.75;;;3.60;100.00
19128;BME280;9696;53.686;10.094;2023-04-07T04:40:16;101658.84;;;3.61;100.00
19128;BME280;9696;53.686;10.094;2023-04-07T04:42:48;101667.47;;;3.62;100.00
19128;BME280;9696;53.686;10.094;2023-04-07T04:45:19;101660.94;;;3.53;100.00
19128;BME280;9696;53.686;10.094;2023-04-07T04:47:49;101668.25;;;3.64;100.00
19128;BME280;9696;53.686;10.094;2023-04-07T04:50:18;101680.97;;;3.50;100.00
19128;BME280;9696;53.686;10.094;2023-04-07T04:52:51;101674.78;;;3.32;100.00
19128;BME280;9696;53.686;10.094;2023-04-07T04:55:22;101681.41;;;3.19;100.00
19128;BME280;9696;53.686;10.094;2023-04-07T04:57:53;101685.00;;;3.15;100.00
19128;BME280;9696;53.686;10.094;2023-04-07T05:00:32;101681.81;;;3.08;100.00
19128;BME280;9696;53.686;10.094;2023-04-07T05:03:05;101693.25;;;3.24;100.00
19128;BME280;9696;53.686;10.094;2023-04-07T05:05:38;101684.03;;;3.17;100.00
19128;BME280;9696;53.686;10.094;2023-04-07T05:08:10;101686.81;;;3.13;100.00
19128;BME280;9696;53.686;10.094;2023-04-07T05:10:40;101692.84;;;3.13;100.00
19128;BME280;9696;53.686;10.094;2023-04-07T05:13:13;101699.59;;;3.17;100.00
19128;BME280;9696;53.686;10.094;2023-04-07T05:15:43;101699.09;;;3.29;100.00
19128;BME280;9696;53.686;10.094;2023-04-07T05:18:13;101701.50;;;3.34;100.00
19128;BME280;9696;53.686;10.094;2023-04-07T05:20:42;101711.38;;;3.46;100.00
19128;BME280;9696;53.686;10.094;2023-04-07T05:23:14;101702.34;;;3.35;100.00
19128;BME280;9696;53.686;10.094;2023-04-07T05:25:46;101710.97;;;3.35;100.00
19128;BME280;9696;53.686;10.094;2023-04-07T05:28:15;101706.38;;;3.42;100.00
19128;BME280;9696;53.686;10.094;2023-04-07T05:30:45;101705.47;;;3.43;100.00
19128;BME280;9696;53.686;10.094;2023-04-07T05:33:14;101709.69;;;3.45;100.00
19128;BME280;9696;53.686;10.094;2023-04-07T05:35:49;101705.53;;;3.82;100.00
19128;BME280;9696;53.686;10.094;2023-04-07T05:38:19;101710.13;;;3.95;100.00
19128;BME280;9696;53.686;10.094;2023-04-07T05:40:49;101709.19;;;4.16;100.00
19128;BME280;9696;53.686;10.094;2023-04-07T05:43:24;101709.09;;;4.38;100.00
19128;BME280;9696;53.686;10.094;2023-04-07T05:45:53;101721.53;;;4.50;100.00
19128;BME280;9696;53.686;10.094;2023-04-07T05:48:23;101722.44;;;4.68;100.00
19128;BME280;9696;53.686;10.094;2023-04-07T05:50:54;101719.34;;;4.60;100.00
19128;BME280;9696;53.686;10.094;2023-04-07T05:53:26;101725.69;;;4.73;100.00
19128;BME280;9696;53.686;10.094;2023-04-07T05:55:55;101725.19;;;4.65;100.00
19128;BME280;9696;53.686;10.094;2023-04-07T05:58:44;101733.69;;;4.68;100.00
19128;BME280;9696;53.686;10.094;2023-04-07T06:01:15;101731.69;;;4.92;100.00
19128;BME280;9696;53.686;10.094;2023-04-07T06:03:44;101740.31;;;5.11;100.00
19128;BME280;9696;53.686;10.094;2023-04-07T06:06:20;101734.47;;;5.42;100.00
19128;BME280;9696;53.686;10.094;2023-04-07T06:08:50;101741.50;;;5.57;100.00
19128;BME280;9696;53.686;10.094;2023-04-07T06:11:20;101741.97;;;5.83;100.00
19128;BME280;9696;53.686;10.094;2023-04-07T06:13:49;101748.06;;;6.00;100.00
19128;BME280;9696;53.686;10.094;2023-04-07T06:16:18;101749.03;;;6.15;100.00
19128;BME280;9696;53.686;10.094;2023-04-07T06:18:48;101749.53;;;6.22;100.00
19128;BME280;9696;53.686;10.094;2023-04-07T06:21:18;101758.44;;;6.18;100.00
19128;BME280;9696;53.686;10.094;2023-04-07T06:23:47;101757.28;;;6.23;100.00
19128;BME280;9696;53.686;10.094;2023-04-07T06:26:18;101752.75;;;6.27;100.00
19128;BME280;9696;53.686;10.094;2023-04-07T06:28:48;101761.31;;;5.96;100.00
19128;BME280;9696;53.686;10.094;2023-04-07T06:31:17;101763.66;;;6.18;100.00
19128;BME280;9696;53.686;10.094;2023-04-07T06:33:47;101764.72;;;6.31;100.00
19128;BME280;9696;53.686;10.094;2023-04-07T06:36:16;101768.66;;;6.38;100.00
19128;BME280;9696;53.686;10.094;2023-04-07T06:38:45;101771.84;;;6.76;100.00
19128;BME280;9696;53.686;10.094;2023-04-07T06:41:14;101772.41;;;6.65;100.00
19128;BME280;9696;53.686;10.094;2023-04-07T06:43:48;101765.28;;;6.84;100.00
19128;BME280;9696;53.686;10.094;2023-04-07T06:46:18;101768.91;;;6.97;100.00
19128;BME280;9696;53.686;10.094;2023-04-07T06:48:47;101769.66;;;7.15;100.00
19128;BME280;9696;53.686;10.094;2023-04-07T06:51:16;101772.69;;;7.23;100.00
19128;BME280;9696;53.686;10.094;2023-04-07T06:53:45;101776.19;;;7.53;100.00
19128;BME280;9696;53.686;10.094;2023-04-07T06:56:15;101784.47;;;7.46;97.25
19128;BME280;9696;53.686;10.094;2023-04-07T06:58:46;101773.63;;;8.26;96.53
19128;BME280;9696;53.686;10.094;2023-04-07T07:01:15;101776.31;;;8.10;95.15
19128;BME280;9696;53.686;10.094;2023-04-07T07:03:44;101780.56;;;8.27;93.26
19128;BME280;9696;53.686;10.094;2023-04-07T07:06:14;101778.91;;;8.54;93.45
19128;BME280;9696;53.686;10.094;2023-04-07T07:08:43;101783.94;;;8.85;94.20
19128;BME280;9696;53.686;10.094;2023-04-07T07:11:13;101785.75;;;8.57;89.40
19128;BME280;9696;53.686;10.094;2023-04-07T07:13:42;101787.09;;;8.90;89.98
19128;BME280;9696;53.686;10.094;2023-04-07T07:16:53;101779.75;;;8.83;91.08
19128;BME280;9696;53.686;10.094;2023-04-07T07:19:22;101781.94;;;9.03;87.64
19128;BME280;9696;53.686;10.094;2023-04-07T07:21:51;101782.63;;;8.92;86.10
19128;BME280;9696;53.686;10.094;2023-04-07T07:24:20;101783.00;;;9.54;89.02
19128;BME280;9696;53.686;10.094;2023-04-07T07:26:49;101788.09;;;9.82;83.82
19128;BME280;9696;53.686;10.094;2023-04-07T07:29:18;101791.75;;;9.40;82.72
19128;BME280;9696;53.686;10.094;2023-04-07T07:31:48;101788.44;;;9.24;83.09
19128;BME280;9696;53.686;10.094;2023-04-07T07:34:18;101795.84;;;9.71;83.40
19128;BME280;9696;53.686;10.094;2023-04-07T07:36:47;101801.13;;;9.57;75.99
19128;BME280;9696;53.686;10.094;2023-04-07T07:39:17;101798.13;;;9.76;77.47
19128;BME280;9696;53.686;10.094;2023-04-07T07:41:46;101794.59;;;9.77;81.48
19128;BME280;9696;53.686;10.094;2023-04-07T07:44:17;101803.50;;;10.39;79.78
19128;BME280;9696;53.686;10.094;2023-04-07T07:46:47;101811.78;;;10.33;80.87
19128;BME280;9696;53.686;10.094;2023-04-07T07:49:18;101808.72;;;10.39;81.66
19128;BME280;9696;53.686;10.094;2023-04-07T07:51:48;101818.44;;;10.12;86.43
19128;BME280;9696;53.686;10.094;2023-04-07T07:54:17;101811.44;;;10.63;77.65
19128;BME280;9696;53.686;10.094;2023-04-07T07:56:46;101817.25;;;10.30;82.71
19128;BME280;9696;53.686;10.094;2023-04-07T07:59:15;101819.00;;;10.17;80.84
19128;BME280;9696;53.686;10.094;2023-04-07T08:01:44;101825.47;;;9.99;76.49
19128;BME280;9696;53.686;10.094;2023-04-07T08:04:13;101816.47;;;9.76;73.73
19128;BME280;9696;53.686;10.094;2023-04-07T08:06:44;101831.56;;;9.19;73.33
19128;BME280;9696;53.686;10.094;2023-04-07T08:09:14;101828.25;;;9.83;73.83
19128;BME280;9696;53.686;10.094;2023-04-07T08:11:43;101825.75;;;10.33;71.76
19128;BME280;9696;53.686;10.094;2023-04-07T08:14:12;101830.56;;;9.48;74.15
19128;BME280;9696;53.686;10.094;2023-04-07T08:16:41;101829.41;;;10.56;70.87
19128;BME280;9696;53.686;10.094;2023-04-07T08:19:11;101836.63;;;10.27;71.46
19128;BME280;9696;53.686;10.094;2023-04-07T08:21:40;101830.34;;;9.78;71.07
19128;BME280;9696;53.686;10.094;2023-04-07T08:24:11;101832.06;;;10.31;68.16
19128;BME280;9696;53.686;10.094;2023-04-07T08:26:40;101833.47;;;10.98;68.89
19128;BME280;9696;53.686;10.094;2023-04-07T08:29:09;101835.69;;;10.92;65.76
19128;BME280;9696;53.686;10.094;2023-04-07T08:31:38;101829.00;;;11.24;67.54
19128;BME280;9696;53.686;10.094;2023-04-07T08:34:07;101826.94;;;11.40;65.27
19128;BME280;9696;53.686;10.094;2023-04-07T08:36:36;101839.06;;;10.81;67.72
19128;BME280;9696;53.686;10.094;2023-04-07T08:39:05;101831.53;;;11.49;62.43
19128;BME280;9696;53.686;10.094;2023-04-07T08:41:38;101825.22;;;11.75;63.23
19128;BME280;9696;53.686;10.094;2023-04-07T08:44:07;101830.97;;;10.84;63.02
19128;BME280;9696;53.686;10.094;2023-04-07T08:46:38;101831.72;;;11.22;62.42
19128;BME280;9696;53.686;10.094;2023-04-07T08:49:09;101829.38;;;11.30;64.14
19128;BME280;9696;53.686;10.094;2023-04-07T08:51:45;101835.91;;;10.88;64.27
19128;BME280;9696;53.686;10.094;2023-04-07T08:54:16;101832.00;;;11.30;61.72
19128;BME280;9696;53.686;10.094;2023-04-07T08:56:49;101834.66;;;10.81;64.31
19128;BME280;9696;53.686;10.094;2023-04-07T08:59:19;101833.53;;;11.69;63.69
19128;BME280;9696;53.686;10.094;2023-04-07T09:01:54;101833.75;;;11.43;63.72
19128;BME280;9696;53.686;10.094;2023-04-07T09:04:23;101837.13;;;11.08;59.27
19128;BME280;9696;53.686;10.094;2023-04-07T09:06:54;101837.75;;;11.12;63.61
19128;BME280;9696;53.686;10.094;2023-04-07T09:09:23;101836.78;;;11.13;62.03
19128;BME280;9696;53.686;10.094;2023-04-07T09:11:53;101844.63;;;10.89;65.28
19128;BME280;9696;53.686;10.094;2023-04-07T09:14:23;101842.75;;;11.15;64.58
19128;BME280;9696;53.686;10.094;2023-04-07T09:16:54;101842.03;;;10.12;64.81
19128;BME280;9696;53.686;10.094;2023-04-07T09:19:25;101846.06;;;11.06;62.83
19128;BME280;9696;53.686;10.094;2023-04-07T09:21:55;101845.72;;;11.10;61.55
19128;BME280;9696;53.686;10.094;2023-04-07T09:24:25;101833.66;;;10.95;59.84
19128;BME280;9696;53.686;10.094;2023-04-07T09:27:13;101842.81;;;11.62;59.94
19128;BME280;9696;53.686;10.094;2023-04-07T09:29:45;101836.88;;;11.84;58.63
19128;BME280;9696;53.686;10.094;2023-04-07T09:32:34;101836.34;;;11.19;56.19
19128;BME280;9696;53.686;10.094;2023-04-07T09:35:06;101833.41;;;11.71;56.56
19128;BME280;9696;53.686;10.094;2023-04-07T09:37:35;101825.38;;;11.38;59.23
19128;BME280;9696;53.686;10.094;2023-04-07T09:40:05;101841.69;;;10.81;64.49
19128;BME280;9696;53.686;10.094;2023-04-07T09:42:44;101837.06;;;10.59;64.55
19128;BME280;9696;53.686;10.094;2023-04-07T09:45:23;101828.13;;;10.87;61.33
19128;BME280;9696;53.686;10.094;2023-04-07T09:48:05;101830.50;;;10.02;62.79
19128;BME280;9696;53.686;10.094;2023-04-07T09:50:38;101827.63;;;10.69;60.35
19128;BME280;9696;53.686;10.094;2023-04-07T09:53:08;101824.53;;;11.37;60.00
19128;BME280;9696;53.686;10.094;2023-04-07T09:55:39;101828.75;;;11.27;65.66
19128;BME280;9696;53.686;10.094;2023-04-07T09:58:13;101831.06;;;10.82;59.75
19128;BME280;9696;53.686;10.094;2023-04-07T10:00:45;101824.97;;;11.55;58.31
19128;BME280;9696;53.686;10.094;2023-04-07T10:03:21;101832.66;;;10.72;63.74
19128;BME280;9696;53.686;10.094;2023-04-07T10:05:53;101832.88;;;11.78;66.10
19128;BME280;9696;53.686;10.094;2023-04-07T10:08:39;101831.72;;;11.82;61.64
19128;BME280;9696;53.686;10.094;2023-04-07T10:11:26;101831.47;;;11.86;64.10
19128;BME280;9696;53.686;10.094;2023-04-07T10:13:56;101835.66;;;11.77;66.94
19128;BME280;9696;53.686;10.094;2023-04-07T10:16:32;101836.50;;;11.65;67.14
19128;BME280;9696;53.686;10.094;2023-04-07T10:19:05;101842.19;;;11.35;61.57
19128;BME280;9696;53.686;10.094;2023-04-07T10:21:42;101833.88;;;12.23;66.87
19128;BME280;9696;53.686;10.094;2023-04-07T10:24:23;101835.34;;;12.50;59.74
19128;BME280;9696;53.686;10.094;2023-04-07T10:27:04;101837.53;;;12.10;65.80
19128;BME280;9696;53.686;10.094;2023-04-07T10:29:42;101834.38;;;12.28;68.26
19128;BME280;9696;53.686;10.094;2023-04-07T10:32:17;101848.00;;;11.27;64.33
19128;BME280;9696;53.686;10.094;2023-04-07T10:34:56;101834.59;;;12.37;62.14
19128;BME280;9696;53.686;10.094;2023-04-07T10:37:28;101836.69;;;12.77;64.13
19128;BME280;9696;53.686;10.094;2023-04-07T10:40:27;101839.41;;;12.32;62.23
19128;BME280;9696;53.686;10.094;2023-04-07T10:42:58;101835.59;;;12.36;61.93
19128;BME280;9696;53.686;10.094;2023-04-07T10:45:57;101841.19;;;11.49;65.66
19128;BME280;9696;53.686;10.094;2023-04-07T10:48:29;101831.38;;;11.87;70.71
19128;BME280;9696;53.686;10.094;2023-04-07T10:51:22;101840.16;;;12.10;62.51
19128;BME280;9696;53.686;10.094;2023-04-07T10:54:22;101842.72;;;11.64;65.75
19128;BME280;9696;53.686;10.094;2023-04-07T10:57:07;101839.91;;;11.54;67.09
19128;BME280;9696;53.686;10.094;2023-04-07T10:59:39;101840.94;;;11.88;68.58
19128;BME280;9696;53.686;10.094;2023-04-07T11:02:31;101845.84;;;12.27;65.46
19128;BME280;9696;53.686;10.094;2023-04-07T11:05:02;101851.31;;;11.90;65.62
19128;BME280;9696;53.686;10.094;2023-04-07T11:07:46;101843.91;;;11.84;73.10
19128;BME280;9696;53.686;10.094;2023-04-07T11:10:22;101841.63;;;12.25;65.99
19128;BME280;9696;53.686;10.094;2023-04-07T11:13:04;101848.69;;;11.90;66.77
19128;BME280;9696;53.686;10.094;2023-04-07T11:15:34;101852.22;;;12.47;68.41
19128;BME280;9696;53.686;10.094;2023-04-07T11:18:16;101844.53;;;12.33;61.87
19128;BME280;9696;53.686;10.094;2023-04-07T11:20:48;101855.09;;;11.62;72.83
19128;BME280;9696;53.686;10.094;2023-04-07T11:23:18;101849.81;;;11.14;81.95
19128;BME280;9696;53.686;10.094;2023-04-07T11:25:49;101831.38;;;11.27;82.97
19128;BME280;9696;53.686;10.094;2023-04-07T11:28:19;101839.56;;;11.59;81.31
19128;BME280;9696;53.686;10.094;2023-04-07T11:30:51;101841.59;;;12.60;78.33
19128;BME280;9696;53.686;10.094;2023-04-07T11:33:24;101826.38;;;12.97;73.52
19128;BME280;9696;53.686;10.094;2023-04-07T11:35:55;101833.91;;;13.01;68.90
19128;BME280;9696;53.686;10.094;2023-04-07T11:38:26;101837.78;;;12.18;76.30
19128;BME280;9696;53.686;10.094;2023-04-07T11:40:56;101848.91;;;12.90;76.06
19128;BME280;9696;53.686;10.094;2023-04-07T11:43:26;101847.47;;;12.63;77.41
19128;BME280;9696;53.686;10.094;2023-04-07T11:46:06;101841.59;;;11.55;84.31
19128;BME280;9696;53.686;10.094;2023-04-07T11:48:40;101844.78;;;12.52;72.24
19128;BME280;9696;53.686;10.094;2023-04-07T11:51:15;101843.97;;;12.85;69.23
19128;BME280;9696;53.686;10.094;2023-04-07T11:53:45;101837.78;;;12.64;72.43
19128;BME280;9696;53.686;10.094;2023-04-07T11:56:16;101848.75;;;12.69;68.40
19128;BME280;9696;53.686;10.094;2023-04-07T11:58:49;101853.78;;;13.05;65.95
19128;BME280;9696;53.686;10.094;2023-04-07T12:01:19;101848.06;;;12.67;64.42
19128;BME280;9696;53.686;10.094;2023-04-07T12:03:57;101849.13;;;13.20;64.75
19128;BME280;9696;53.686;10.094;2023-04-07T12:06:28;101852.63;;;12.19;69.36
19128;BME280;9696;53.686;10.094;2023-04-07T12:08:57;101851.88;;;12.74;67.35
19128;BME280;9696;53.686;10.094;2023-04-07T12:11:27;101851.69;;;13.10;66.77
19128;BME280;9696;53.686;10.094;2023-04-07T12:13:57;101854.66;;;12.84;75.27
19128;BME280;9696;53.686;10.094;2023-04-07T12:16:26;101855.84;;;13.13;65.52
19128;BME280;9696;53.686;10.094;2023-04-07T12:18:57;101856.81;;;13.23;69.74
19128;BME280;9696;53.686;10.094;2023-04-07T12:21:26;101855.38;;;12.74;78.21
19128;BME280;9696;53.686;10.094;2023-04-07T12:23:55;101854.91;;;13.14;74.81
19128;BME280;9696;53.686;10.094;2023-04-07T12:26:24;101852.94;;;12.03;76.87
19128;BME280;9696;53.686;10.094;2023-04-07T12:28:53;101853.25;;;12.34;77.12
19128;BME280;9696;53.686;10.094;2023-04-07T12:31:23;101859.56;;;11.85;81.21
19128;BME280;9696;53.686;10.094;2023-04-07T12:33:52;101860.75;;;12.16;81.22
19128;BME280;9696;53.686;10.094;2023-04-07T12:39:34;101864.59;;;13.13;78.26
19128;BME280;9696;53.686;10.094;2023-04-07T12:42:04;101863.16;;;12.87;85.19
19128;BME280;9696;53.686;10.094;2023-04-07T12:44:34;101866.59;;;12.65;80.84
19128;BME280;9696;53.686;10.094;2023-04-07T12:47:04;101864.56;;;12.58;80.41
19128;BME280;9696;53.686;10.094;2023-04-07T12:49:33;101865.75;;;13.32;82.40
19128;BME280;9696;53.686;10.094;2023-04-07T12:52:03;101868.69;;;13.60;82.11
19128;BME280;9696;53.686;10.094;2023-04-07T12:54:33;101866.22;;;12.59;79.90
19128;BME280;9696;53.686;10.094;2023-04-07T12:57:03;101868.88;;;12.59;89.71
19128;BME280;9696;53.686;10.094;2023-04-07T12:59:32;101866.38;;;12.91;83.42
19128;BME280;9696;53.686;10.094;2023-04-07T13:02:04;101865.88;;;12.97;83.28
19128;BME280;9696;53.686;10.094;2023-04-07T13:04:34;101865.09;;;13.18;86.53
19128;BME280;9696;53.686;10.094;2023-04-07T13:07:05;101863.34;;;13.51;81.17
19128;BME280;9696;53.686;10.094;2023-04-07T13:09:35;101868.19;;;13.12;83.97
19128;BME280;9696;53.686;10.094;2023-04-07T13:12:04;101861.16;;;11.99;88.97
19128;BME280;9696;53.686;10.094;2023-04-07T13:14:33;101855.84;;;13.13;84.84
19128;BME280;9696;53.686;10.094;2023-04-07T13:17:05;101859.88;;;12.61;87.06
19128;BME280;9696;53.686;10.094;2023-04-07T13:19:35;101857.88;;;12.98;82.01